createdAt,value
2017-06-27T00:02:56.192Z,14.25
2017-06-27T00:07:53.984Z,14.28
2017-06-27T00:12:49.236Z,14.35
2017-06-27T00:17:45.325Z,14.41
2017-06-27T00:22:43.237Z,14.30
2017-06-27T00:27:38.447Z,14.18
2017-06-27T00:32:34.092Z,14.05
2017-06-27T00:37:32.281Z,14.04
2017-06-27T00:42:27.583Z,14.04
2017-06-27T00:47:25.726Z,13.86
2017-06-27T00:52:20.786Z,13.90
2017-06-27T00:57:18.016Z,13.79
2017-06-27T01:02:14.457Z,13.78
2017-06-27T01:07:10.063Z,13.83
2017-06-27T01:12:07.885Z,13.86
2017-06-27T01:17:03.008Z,13.74
2017-06-27T01:21:59.017Z,13.79
2017-06-27T01:26:54.737Z,13.68
2017-06-27T01:31:50.329Z,13.50
2017-06-27T01:36:47.163Z,13.54
2017-06-27T01:41:45.260Z,13.50
2017-06-27T01:46:40.374Z,13.60
2017-06-27T01:51:37.470Z,13.44
2017-06-27T01:56:33.173Z,13.19
2017-06-27T02:01:30.003Z,13.28
2017-06-27T02:06:25.875Z,13.20
2017-06-27T02:11:21.688Z,13.30
2017-06-27T02:16:17.533Z,13.12
2017-06-27T02:21:13.212Z,13.15
2017-06-27T02:26:08.889Z,13.05
2017-06-27T02:31:06.845Z,13.04
2017-06-27T02:36:02.100Z,12.94
2017-06-27T02:40:58.188Z,12.80
2017-06-27T02:45:53.969Z,12.86
2017-06-27T02:50:49.770Z,12.90
2017-06-27T02:55:45.530Z,12.85
2017-06-27T03:00:42.350Z,12.93
2017-06-27T03:05:37.996Z,12.93
2017-06-27T03:10:34.990Z,12.85
2017-06-27T03:15:31.500Z,12.90
2017-06-27T03:20:27.100Z,12.93
2017-06-27T03:25:23.785Z,12.87
2017-06-27T03:30:20.647Z,12.70
2017-06-27T03:35:18.159Z,12.72
2017-06-27T03:40:13.078Z,12.70
2017-06-27T03:45:10.069Z,12.79
2017-06-27T03:50:05.911Z,12.67
2017-06-27T03:55:02.801Z,12.82
2017-06-27T03:59:58.854Z,12.90
2017-06-27T04:04:55.032Z,12.90
2017-06-27T04:09:52.001Z,12.97
2017-06-27T04:14:47.685Z,13.01
2017-06-27T04:19:45.028Z,13.01
2017-06-27T04:24:40.439Z,13.18
2017-06-27T04:29:36.962Z,13.23
2017-06-27T04:34:32.656Z,13.54
2017-06-27T04:39:28.738Z,13.42
2017-06-27T04:44:24.749Z,13.65
2017-06-27T04:49:22.798Z,13.60
2017-06-27T04:54:19.911Z,13.72
2017-06-27T04:59:15.495Z,13.74
2017-06-27T05:04:11.582Z,13.87
2017-06-27T05:09:07.608Z,14.00
2017-06-27T05:14:04.808Z,14.33
2017-06-27T05:19:02.355Z,14.55
2017-06-27T05:24:00.668Z,14.77
2017-06-27T05:28:57.917Z,15.36
2017-06-27T05:33:53.529Z,15.57
2017-06-27T05:38:49.625Z,15.29
2017-06-27T05:43:45.554Z,15.39
2017-06-27T05:48:41.784Z,15.42
2017-06-27T05:53:37.850Z,15.46
2017-06-27T05:58:33.478Z,15.52
2017-06-27T06:03:29.105Z,15.57
2017-06-27T06:08:25.977Z,15.77
2017-06-27T06:13:22.474Z,15.67
2017-06-27T06:18:18.452Z,15.68
2017-06-27T06:23:14.445Z,15.90
2017-06-27T06:28:10.514Z,15.72
2017-06-27T06:33:06.793Z,15.70
2017-06-27T06:38:02.570Z,15.90
2017-06-27T06:42:58.688Z,16.09
2017-06-27T06:47:56.570Z,16.47
2017-06-27T06:52:52.446Z,16.54
2017-06-27T06:57:49.197Z,16.42
2017-06-27T07:02:46.817Z,16.35
2017-06-27T07:07:42.266Z,16.54
2017-06-27T07:12:38.112Z,16.56
2017-06-27T07:17:33.656Z,16.64
2017-06-27T07:22:30.512Z,16.84
2017-06-27T07:27:26.264Z,17.05
2017-06-27T07:32:22.809Z,17.12
2017-06-27T07:37:19.885Z,16.76
2017-06-27T07:42:18.113Z,17.20
2017-06-27T07:47:15.903Z,17.23
2017-06-27T07:52:11.400Z,17.36
2017-06-27T07:57:08.626Z,17.24
2017-06-27T08:02:05.166Z,17.22
2017-06-27T08:07:02.769Z,17.34
2017-06-27T08:11:59.075Z,17.49
2017-06-27T08:16:55.820Z,17.70
2017-06-27T08:21:52.922Z,18.25
2017-06-27T08:26:48.594Z,18.01
2017-06-27T08:31:44.474Z,18.16
2017-06-27T08:36:40.905Z,18.31
2017-06-27T08:41:36.771Z,18.22
2017-06-27T08:46:33.832Z,18.41
2017-06-27T08:51:31.065Z,18.47
2017-06-27T08:56:27.779Z,18.71
2017-06-27T09:01:24.308Z,19.15
2017-06-27T09:06:20.389Z,19.14
2017-06-27T09:11:16.083Z,18.93
2017-06-27T09:16:11.692Z,18.75
2017-06-27T09:21:07.093Z,18.49
2017-06-27T09:26:03.081Z,18.68
2017-06-27T09:31:00.159Z,18.74
2017-06-27T09:35:59.950Z,18.83
2017-06-27T09:40:54.886Z,18.71
2017-06-27T09:45:51.683Z,18.89
2017-06-27T09:50:48.466Z,18.88
2017-06-27T09:55:45.089Z,19.07
2017-06-27T10:00:41.915Z,18.95
2017-06-27T10:05:37.552Z,19.04
2017-06-27T10:10:35.117Z,19.12
2017-06-27T10:15:30.705Z,18.99
2017-06-27T10:20:27.099Z,19.19
2017-06-27T10:25:24.289Z,19.44
2017-06-27T10:30:22.614Z,19.36
2017-06-27T10:35:18.997Z,19.52
2017-06-27T10:40:14.570Z,19.74
2017-06-27T10:45:11.590Z,19.85
2017-06-27T10:50:07.288Z,19.96
2017-06-27T10:55:03.226Z,19.69
2017-06-27T11:00:01.294Z,19.62
2017-06-27T11:04:57.615Z,19.40
2017-06-27T11:09:53.116Z,19.64
2017-06-27T11:14:49.517Z,19.92
2017-06-27T11:19:46.721Z,20.11
2017-06-27T11:24:42.505Z,20.14
2017-06-27T11:29:38.543Z,20.18
2017-06-27T11:34:35.734Z,20.02
2017-06-27T11:39:31.530Z,20.06
2017-06-27T11:44:28.613Z,19.85
2017-06-27T11:49:24.272Z,20.16
2017-06-27T11:54:21.176Z,20.41
2017-06-27T11:59:17.124Z,20.77
2017-06-27T12:04:14.231Z,20.95
2017-06-27T12:09:10.070Z,20.55
2017-06-27T12:14:08.127Z,20.22
2017-06-27T12:19:04.461Z,20.21
2017-06-27T12:24:02.322Z,20.31
2017-06-27T12:28:59.591Z,20.41
2017-06-27T12:33:54.818Z,20.52
2017-06-27T12:38:50.925Z,20.40
2017-06-27T12:43:46.739Z,20.47
2017-06-27T12:48:42.649Z,20.55
2017-06-27T12:53:39.594Z,20.60
2017-06-27T12:58:35.336Z,20.55
2017-06-27T13:03:32.129Z,20.62
2017-06-27T13:08:27.648Z,20.80
2017-06-27T13:13:25.575Z,20.34
2017-06-27T13:18:20.665Z,20.25
2017-06-27T13:23:18.366Z,20.29
2017-06-27T13:28:13.714Z,20.28
2017-06-27T13:33:09.570Z,20.22
2017-06-27T13:38:05.526Z,20.06
2017-06-27T13:43:01.565Z,20.19
2017-06-27T13:47:59.004Z,20.34
2017-06-27T13:52:54.849Z,20.40
2017-06-27T13:57:51.839Z,20.44
2017-06-27T14:02:48.126Z,20.44
2017-06-27T14:07:44.150Z,20.51
2017-06-27T14:12:39.903Z,20.67
2017-06-27T14:17:36.282Z,20.69
2017-06-27T14:22:34.360Z,20.74
2017-06-27T14:27:29.516Z,20.55
2017-06-27T14:32:26.337Z,20.60
2017-06-27T14:37:23.833Z,20.50
2017-06-27T14:42:19.193Z,20.51
2017-06-27T14:47:15.219Z,20.32
2017-06-27T14:52:12.255Z,20.36
2017-06-27T14:57:07.974Z,20.59
2017-06-27T15:02:03.920Z,20.52
2017-06-27T15:07:00.111Z,20.55
2017-06-27T15:11:56.912Z,20.75
2017-06-27T15:16:53.844Z,20.39
2017-06-27T15:21:49.462Z,20.48
2017-06-27T15:26:46.457Z,20.47
2017-06-27T15:31:42.886Z,20.47
2017-06-27T15:36:38.510Z,20.31
2017-06-27T15:41:34.565Z,20.32
2017-06-27T15:46:31.741Z,20.36
2017-06-27T15:51:29.363Z,20.18
2017-06-27T15:56:24.445Z,20.26
2017-06-27T16:01:20.302Z,20.03
2017-06-27T16:06:16.421Z,20.03
2017-06-27T16:11:14.409Z,20.14
2017-06-27T16:16:09.851Z,20.09
2017-06-27T16:21:06.896Z,20.14
2017-06-27T16:26:02.754Z,20.02
2017-06-27T16:30:59.660Z,20.03
2017-06-27T16:35:55.313Z,19.96
2017-06-27T16:40:53.745Z,19.86
2017-06-27T16:45:50.191Z,19.91
2017-06-27T16:50:46.931Z,19.91
2017-06-27T16:55:43.535Z,20.07
2017-06-27T17:00:39.271Z,20.07
2017-06-27T17:05:35.766Z,19.96
2017-06-27T17:10:32.749Z,19.95
2017-06-27T17:15:28.789Z,19.84
2017-06-27T17:20:25.892Z,19.88
2017-06-27T17:25:21.269Z,19.88
2017-06-27T17:30:18.265Z,19.91
2017-06-27T17:35:14.913Z,19.88
2017-06-27T17:40:11.293Z,19.82
2017-06-27T17:45:08.297Z,19.86
2017-06-27T17:50:03.830Z,19.86
2017-06-27T17:54:59.727Z,19.79
2017-06-27T17:59:56.665Z,19.82
2017-06-27T18:04:52.392Z,19.85
2017-06-27T18:09:50.894Z,19.89
2017-06-27T18:14:47.286Z,19.82
2017-06-27T18:19:44.261Z,19.76
2017-06-27T18:24:41.134Z,19.79
2017-06-27T18:29:37.688Z,19.66
2017-06-27T18:34:34.758Z,19.63
2017-06-27T18:39:31.461Z,19.52
2017-06-27T18:44:27.799Z,19.55
2017-06-27T18:49:23.833Z,19.34
2017-06-27T18:54:19.588Z,19.33
2017-06-27T18:59:15.433Z,19.31
2017-06-27T19:04:11.230Z,19.08
2017-06-27T19:09:07.962Z,19.02
2017-06-27T19:14:03.419Z,18.90
2017-06-27T19:19:00.947Z,18.98
2017-06-27T19:23:58.793Z,18.77
2017-06-27T19:28:55.140Z,18.71
2017-06-27T19:33:51.744Z,18.58
2017-06-27T19:38:47.284Z,18.59
2017-06-27T19:43:43.796Z,18.52
2017-06-27T19:48:39.720Z,18.53
2017-06-27T19:53:35.572Z,18.52
2017-06-27T19:58:31.452Z,18.44
2017-06-27T20:03:28.011Z,18.37
2017-06-27T20:08:23.569Z,18.41
2017-06-27T20:13:20.875Z,18.49
2017-06-27T20:18:16.287Z,18.35
2017-06-27T20:23:12.446Z,18.53
2017-06-27T20:28:08.520Z,18.40
2017-06-27T20:33:05.404Z,18.37
2017-06-27T20:38:01.423Z,18.41
2017-06-27T20:42:57.415Z,18.41
2017-06-27T20:47:53.217Z,18.44
2017-06-27T20:52:49.392Z,18.41
2017-06-27T20:57:46.259Z,18.28
2017-06-27T21:02:41.868Z,18.38
2017-06-27T21:07:38.656Z,18.41
2017-06-27T21:12:35.094Z,18.33
2017-06-27T21:17:32.170Z,18.43
2017-06-27T21:22:27.835Z,18.35
2017-06-27T21:27:24.522Z,18.38
2017-06-27T21:32:21.048Z,18.28
2017-06-27T21:37:16.609Z,18.29
2017-06-27T21:42:13.577Z,18.38
2017-06-27T21:47:09.146Z,18.22
2017-06-27T21:52:06.095Z,18.31
2017-06-27T21:57:02.701Z,18.20
2017-06-27T22:01:58.319Z,18.35
2017-06-27T22:06:55.694Z,18.28
2017-06-27T22:11:52.106Z,18.37
2017-06-27T22:16:49.039Z,18.20
2017-06-27T22:21:46.075Z,18.23
2017-06-27T22:26:42.800Z,18.18
2017-06-27T22:31:38.556Z,18.19
2017-06-27T22:36:34.530Z,18.16
2017-06-27T22:41:30.482Z,18.29
2017-06-27T22:46:27.364Z,18.10
2017-06-27T22:51:23.368Z,18.20
2017-06-27T22:56:20.543Z,18.11
2017-06-27T23:01:16.063Z,18.07
2017-06-27T23:06:12.152Z,18.08
2017-06-27T23:11:09.322Z,18.16
2017-06-27T23:16:04.980Z,18.11
2017-06-27T23:21:00.756Z,18.04
2017-06-27T23:25:57.655Z,18.04
2017-06-27T23:30:54.231Z,18.15
2017-06-27T23:35:51.183Z,18.19
2017-06-27T23:40:46.758Z,18.07
2017-06-27T23:45:42.628Z,18.05
2017-06-27T23:50:39.366Z,18.01
2017-06-27T23:55:36.902Z,17.97
